Time;durP1;ratioP1;P1;durP2;ratioP2;P2;SDS_P1;SDS_P2;PMS_P1;PMS_P2;Temp;Humidity;BMP_temperature;BMP_pressure;BME280_temperature;BME280_humidity;BME280_pressure;Samples;Min_cycle;Max_cycle;Signal;HPM_P1;HPM_P2
2022/08/05 00:00:48;;;;;;;2.13;0.70;;;18.20;88.20;;;;;;4992419;28;20026;-58
2022/08/05 00:03:14;;;;;;;4.68;0.43;;;18.20;87.20;;;;;;5003085;28;20440;-57
2022/08/05 00:05:42;;;;;;;3.72;0.77;;;18.20;86.60;;;;;;4997218;28;20570;-59
2022/08/05 00:08:08;;;;;;;0.75;0.50;;;18.20;85.70;;;;;;4991675;28;20064;-57
2022/08/05 00:10:33;;;;;;;3.83;0.50;;;18.20;87.00;;;;;;4997771;28;20065;-58
2022/08/05 00:12:59;;;;;;;3.58;0.50;;;18.10;86.20;;;;;;4999164;28;20040;-58
2022/08/05 00:15:25;;;;;;;2.05;0.77;;;18.10;83.40;;;;;;4999770;28;20049;-58
2022/08/05 00:17:50;;;;;;;1.85;0.30;;;18.10;84.00;;;;;;4992153;28;20517;-58
2022/08/05 00:20:16;;;;;;;0.40;0.22;;;18.00;83.40;;;;;;4993506;28;20117;-58
2022/08/05 00:22:42;;;;;;;1.63;0.30;;;18.00;83.50;;;;;;4989076;28;20026;-57
2022/08/05 00:25:07;;;;;;;3.00;0.28;;;17.90;82.50;;;;;;4998641;28;20411;-58
2022/08/05 00:27:33;;;;;;;4.43;0.60;;;17.90;81.50;;;;;;5000388;28;20027;-57
2022/08/05 00:29:59;;;;;;;2.28;0.38;;;17.90;81.90;;;;;;5003656;28;20033;-59
2022/08/05 00:32:24;;;;;;;3.50;0.43;;;17.80;81.70;;;;;;4996183;28;20545;-58
2022/08/05 00:34:50;;;;;;;2.70;0.50;;;17.70;81.50;;;;;;4998302;28;20546;-57
2022/08/05 00:37:16;;;;;;;1.40;0.43;;;17.70;82.70;;;;;;5001333;28;20053;-58
2022/08/05 00:39:41;;;;;;;0.40;0.30;;;17.70;82.20;;;;;;4992639;28;20545;-60
2022/08/05 00:42:07;;;;;;;1.40;0.40;;;17.70;82.40;;;;;;4996526;28;20023;-59
2022/08/05 00:44:33;;;;;;;3.35;0.55;;;17.70;79.70;;;;;;4997823;28;20132;-58
2022/08/05 00:46:59;;;;;;;6.03;0.45;;;17.70;80.60;;;;;;4990928;28;20030;-58
2022/08/05 00:49:24;;;;;;;6.50;0.77;;;17.70;82.00;;;;;;5002604;28;20030;-58
2022/08/05 00:51:50;;;;;;;3.63;0.50;;;17.70;81.90;;;;;;4996988;28;20022;-59
2022/08/05 00:54:15;;;;;;;2.95;0.63;;;17.60;80.40;;;;;;4999943;28;20091;-61
2022/08/05 00:56:41;;;;;;;1.45;0.40;;;17.60;80.60;;;;;;4989240;28;20479;-59
2022/08/05 00:59:07;;;;;;;1.65;0.22;;;17.60;80.50;;;;;;4997942;28;20029;-59
2022/08/05 01:01:33;;;;;;;1.50;0.30;;;17.50;80.00;;;;;;4995811;28;20027;-58
2022/08/05 01:03:59;;;;;;;3.10;0.43;;;17.50;80.70;;;;;;4991169;28;20041;-58
2022/08/05 01:06:24;;;;;;;1.85;0.30;;;17.50;81.00;;;;;;4997258;28;20046;-58
2022/08/05 01:08:50;;;;;;;3.00;0.40;;;17.60;80.50;;;;;;4998448;28;20045;-60
2022/08/05 01:11:22;;;;;;;2.45;0.60;;;17.50;81.60;;;;;;4993451;28;20037;-58
2022/08/05 01:14:22;;;;;;;3.03;0.43;;;17.60;80.80;;;;;;4994902;28;20027;-58
2022/08/05 01:17:04;;;;;;;4.22;0.45;;;17.50;81.00;;;;;;5009505;28;20398;-58
2022/08/05 01:19:34;;;;;;;;;;;17.60;80.80;;;;;;4997436;28;20073;-58
2022/08/05 01:22:41;;;;;;;1.77;1.05;;;17.60;80.70;;;;;;4991166;28;19909;-57
2022/08/05 01:25:21;;;;;;;1.63;0.45;;;17.60;80.70;;;;;;4995532;28;20043;-57
2022/08/05 01:27:52;;;;;;;3.13;0.60;;;17.60;81.10;;;;;;4992391;28;20036;-57
2022/08/05 01:30:18;;;;;;;1.73;0.50;;;17.60;81.00;;;;;;4998447;28;20041;-58
2022/08/05 01:32:46;;;;;;;4.47;0.88;;;17.50;81.30;;;;;;4989119;28;20042;-58
2022/08/05 01:35:24;;;;;;;7.70;0.60;;;17.50;82.30;;;;;;4998349;28;20022;-59
2022/08/05 01:37:55;;;;;;;1.95;0.38;;;17.50;81.30;;;;;;4990715;28;20162;-58
2022/08/05 01:40:25;;;;;;;1.88;0.40;;;17.40;81.10;;;;;;4990783;28;20072;-58
2022/08/05 01:42:52;;;;;;;1.67;0.50;;;17.30;80.70;;;;;;4990447;28;20057;-58
2022/08/05 01:45:20;;;;;;;2.63;0.40;;;17.30;83.60;;;;;;4996284;28;20516;-58
2022/08/05 01:47:48;;;;;;;3.45;0.32;;;17.20;82.50;;;;;;4990443;28;20031;-57
2022/08/05 01:50:25;;;;;;;1.90;0.60;;;17.10;81.90;;;;;;4996475;28;20034;-58
2022/08/05 01:52:52;;;;;;;1.55;0.65;;;17.10;82.60;;;;;;4986320;28;20022;-58
2022/08/05 01:55:22;;;;;;;3.55;0.40;;;17.00;82.70;;;;;;4991484;28;20105;-57
2022/08/05 01:57:50;;;;;;;1.60;0.35;;;17.00;84.80;;;;;;4989902;28;20037;-59
2022/08/05 02:00:17;;;;;;;2.42;0.40;;;16.90;85.20;;;;;;4990038;28;20085;-58
2022/08/05 02:02:56;;;;;;;4.68;0.57;;;16.90;85.50;;;;;;4990249;28;20035;-58
2022/08/05 02:05:27;;;;;;;1.85;0.40;;;16.90;84.90;;;;;;4989116;28;20038;-58
2022/08/05 02:07:53;;;;;;;2.33;0.30;;;16.90;84.80;;;;;;4990808;28;20085;-58
2022/08/05 02:10:19;;;;;;;2.78;0.50;;;16.90;84.90;;;;;;4996263;28;20025;-58
2022/08/05 02:12:52;;;;;;;0.47;0.32;;;16.80;86.00;;;;;;4987042;28;20437;-58
2022/08/05 02:15:20;;;;;;;2.53;0.20;;;16.80;85.20;;;;;;4998085;28;20036;-57
2022/08/05 02:18:03;;;;;;;5.35;0.68;;;16.80;86.00;;;;;;4991997;28;20054;-58
2022/08/05 02:20:35;;;;;;;3.28;0.50;;;16.80;86.60;;;;;;4995179;28;20026;-58
2022/08/05 02:23:07;;;;;;;2.78;0.63;;;16.80;84.60;;;;;;4984264;28;20402;-58
2022/08/05 02:25:40;;;;;;;2.58;0.47;;;16.70;84.40;;;;;;4991763;28;20042;-58
2022/08/05 02:28:07;;;;;;;2.35;0.40;;;16.70;84.20;;;;;;4990735;28;20561;-58
2022/08/05 02:31:00;;;;;;;3.30;0.45;;;16.70;84.40;;;;;;4995213;28;20497;-58
2022/08/05 02:33:27;;;;;;;6.57;0.43;;;16.70;86.00;;;;;;4997918;28;20034;-58
2022/08/05 02:35:56;;;;;;;2.60;0.40;;;16.70;85.40;;;;;;4990005;28;20088;-57
2022/08/05 02:38:23;;;;;;;1.90;0.40;;;16.70;86.20;;;;;;4997477;28;20026;-58
2022/08/05 02:40:49;;;;;;;2.55;0.40;;;16.80;87.00;;;;;;5000133;28;20057;-59
2022/08/05 02:43:16;;;;;;;1.02;0.45;;;16.80;86.40;;;;;;4994938;28;20049;-58
2022/08/05 02:45:43;;;;;;;1.58;0.43;;;16.80;86.10;;;;;;4990300;28;20057;-57
2022/08/05 02:48:09;;;;;;;4.55;0.88;;;16.80;85.50;;;;;;4996189;28;20112;-57
2022/08/05 02:50:36;;;;;;;1.70;0.30;;;16.80;84.40;;;;;;4996351;28;20490;-58
2022/08/05 02:53:03;;;;;;;3.15;0.45;;;16.80;85.30;;;;;;4996812;28;20030;-58
2022/08/05 02:55:31;;;;;;;4.55;0.57;;;16.70;84.60;;;;;;4988682;28;20502;-58
2022/08/05 02:57:58;;;;;;;2.67;0.95;;;16.60;85.20;;;;;;4996582;28;20378;-58
2022/08/05 03:00:24;;;;;;;1.50;0.38;;;16.50;85.30;;;;;;4990118;28;20030;-59
2022/08/05 03:02:51;;;;;;;2.95;0.43;;;16.50;84.90;;;;;;4993004;28;20053;-57
2022/08/05 03:05:18;;;;;;;5.32;0.50;;;16.40;85.30;;;;;;4993652;28;20046;-58
2022/08/05 03:07:44;;;;;;;5.03;0.75;;;16.30;86.00;;;;;;4992441;28;20593;-58
2022/08/05 03:10:10;;;;;;;3.15;0.95;;;16.30;86.50;;;;;;4994714;28;20076;-58
2022/08/05 03:12:38;;;;;;;2.25;0.50;;;16.20;87.00;;;;;;4993650;28;20487;-58
2022/08/05 03:15:08;;;;;;;1.17;0.25;;;16.20;86.50;;;;;;4989384;28;20390;-57
2022/08/05 03:17:35;;;;;;;3.25;0.32;;;16.20;86.90;;;;;;5000891;28;20121;-58
2022/08/05 03:20:00;;;;;;;0.65;0.35;;;16.10;87.20;;;;;;4994380;28;20026;-58
2022/08/05 03:22:26;;;;;;;0.85;0.30;;;16.00;87.50;;;;;;4993009;28;20104;-58
2022/08/05 03:24:53;;;;;;;2.40;0.20;;;16.00;87.60;;;;;;4995798;28;20491;-58
2022/08/05 03:27:20;;;;;;;3.25;0.50;;;16.00;87.00;;;;;;5006486;28;20109;-57
2022/08/05 03:29:46;;;;;;;2.42;0.30;;;15.90;87.90;;;;;;5007617;28;20441;-57
2022/08/05 03:32:14;;;;;;;1.40;0.17;;;16.00;88.90;;;;;;5000047;28;20450;-58
2022/08/05 03:34:40;;;;;;;5.38;0.40;;;16.00;89.40;;;;;;4989985;28;20048;-58
2022/08/05 03:37:06;;;;;;;2.63;0.20;;;16.00;90.00;;;;;;4994857;28;20042;-58
2022/08/05 03:39:32;;;;;;;1.98;0.30;;;16.00;90.00;;;;;;4996650;28;20030;-58
2022/08/05 03:41:58;;;;;;;0.95;0.30;;;15.90;90.00;;;;;;4995765;28;20053;-58
2022/08/05 03:44:24;;;;;;;2.83;0.57;;;15.80;90.00;;;;;;4993932;28;20077;-58
2022/08/05 03:46:50;;;;;;;1.55;0.30;;;15.80;90.20;;;;;;4993759;28;20465;-58
2022/08/05 03:49:16;;;;;;;4.07;0.43;;;15.70;90.50;;;;;;4997914;28;20026;-59
2022/08/05 03:51:49;;;;;;;4.22;0.30;;;15.70;90.90;;;;;;4995102;28;20030;-58
2022/08/05 03:54:32;;;;;;;5.75;0.28;;;15.70;91.00;;;;;;4994917;28;20037;-59
2022/08/05 03:56:59;;;;;;;5.57;0.60;;;15.70;91.40;;;;;;4994492;28;20038;-58
2022/08/05 03:59:33;;;;;;;1.48;0.40;;;15.60;91.00;;;;;;4993519;28;20022;-59
2022/08/05 04:02:01;;;;;;;2.30;0.40;;;15.60;91.90;;;;;;4989354;28;20033;-58
2022/08/05 04:04:28;;;;;;;1.42;0.40;;;15.60;91.20;;;;;;4991065;28;20046;-58
2022/08/05 04:06:54;;;;;;;1.80;0.30;;;15.60;91.60;;;;;;4999537;28;20045;-58
2022/08/05 04:09:20;;;;;;;3.78;0.40;;;15.60;92.10;;;;;;4996278;28;20038;-58
2022/08/05 04:11:46;;;;;;;0.90;0.35;;;15.50;91.50;;;;;;4995525;28;20398;-59
2022/08/05 04:14:12;;;;;;;3.75;0.47;;;15.50;92.00;;;;;;5001772;28;20026;-58
2022/08/05 04:16:38;;;;;;;2.63;0.40;;;15.50;91.80;;;;;;5000435;28;20022;-58
2022/08/05 04:19:04;;;;;;;3.35;0.40;;;15.40;92.00;;;;;;4998704;28;20351;-58
2022/08/05 04:21:30;;;;;;;1.88;0.65;;;15.30;92.50;;;;;;5004447;28;20030;-58
2022/08/05 04:23:59;;;;;;;3.15;0.43;;;15.30;92.60;;;;;;5000506;28;20034;-58
2022/08/05 04:26:24;;;;;;;3.60;0.57;;;15.30;92.60;;;;;;5007096;28;20084;-58
2022/08/05 04:28:50;;;;;;;2.25;0.45;;;15.20;93.10;;;;;;5000236;28;20026;-58
2022/08/05 04:31:16;;;;;;;1.85;0.40;;;15.20;93.00;;;;;;5007494;28;20510;-59
2022/08/05 04:33:42;;;;;;;1.63;0.30;;;15.20;93.20;;;;;;5003741;28;20029;-57
2022/08/05 04:36:08;;;;;;;6.30;0.70;;;15.20;93.50;;;;;;4993103;28;20060;-60
2022/08/05 04:38:36;;;;;;;4.35;0.50;;;15.10;93.60;;;;;;5005981;28;20397;-59
2022/08/05 04:41:01;;;;;;;2.63;0.57;;;15.20;93.70;;;;;;4990882;28;20034;-58
2022/08/05 04:43:27;;;;;;;0.98;0.25;;;15.20;93.90;;;;;;4998302;28;20493;-58
2022/08/05 04:45:52;;;;;;;0.90;0.30;;;15.20;94.00;;;;;;5000378;28;20051;-58
2022/08/05 04:48:18;;;;;;;0.28;0.20;;;15.20;94.30;;;;;;5008900;28;20034;-57
2022/08/05 04:50:45;;;;;;;0.45;0.22;;;15.30;93.80;;;;;;5001215;28;20041;-58
2022/08/05 04:53:13;;;;;;;1.13;0.25;;;15.30;93.70;;;;;;5002203;28;20537;-58
2022/08/05 04:55:39;;;;;;;1.48;0.40;;;15.40;93.60;;;;;;4990588;28;20033;-58
2022/08/05 04:58:07;;;;;;;4.25;0.65;;;15.40;93.70;;;;;;4990108;28;20022;-58
2022/08/05 05:00:33;;;;;;;1.25;0.40;;;15.40;93.70;;;;;;4988903;28;20039;-58
2022/08/05 05:02:59;;;;;;;9.75;0.90;;;15.50;93.40;;;;;;4991777;28;20023;-58
2022/08/05 05:05:25;;;;;;;1.48;0.68;;;15.50;93.50;;;;;;4992928;28;20129;-58
2022/08/05 05:07:51;;;;;;;3.45;0.50;;;15.50;93.60;;;;;;4999509;28;20419;-58
2022/08/05 05:10:17;;;;;;;0.63;0.40;;;15.50;93.70;;;;;;5000877;28;20037;-58
2022/08/05 05:12:42;;;;;;;1.75;0.40;;;15.50;93.60;;;;;;4992766;28;20030;-57
2022/08/05 05:15:09;;;;;;;3.58;0.52;;;15.50;93.90;;;;;;4996881;28;20025;-57
2022/08/05 05:17:39;;;;;;;1.77;0.68;;;15.50;94.20;;;;;;4993649;28;20030;-58
2022/08/05 05:20:06;;;;;;;4.70;0.70;;;15.50;94.30;;;;;;4999586;28;20026;-58
2022/08/05 05:22:33;;;;;;;4.88;0.40;;;15.50;94.30;;;;;;4996919;28;20031;-58
2022/08/05 05:24:59;;;;;;;1.48;0.90;;;15.40;94.30;;;;;;4993214;28;20502;-57
2022/08/05 05:27:26;;;;;;;2.50;0.55;;;15.40;94.70;;;;;;4994179;28;20030;-59
2022/08/05 05:29:52;;;;;;;6.90;0.57;;;15.30;94.60;;;;;;4989913;28;20026;-58
2022/08/05 05:32:17;;;;;;;5.28;0.70;;;15.30;94.90;;;;;;4992098;28;20037;-59
2022/08/05 05:34:43;;;;;;;1.83;0.30;;;15.20;95.00;;;;;;4989586;28;20121;-58
2022/08/05 05:37:11;;;;;;;1.58;0.50;;;15.30;95.00;;;;;;4994999;28;20112;-58
2022/08/05 05:39:36;;;;;;;4.70;0.70;;;15.30;95.00;;;;;;4990262;28;20157;-58
2022/08/05 05:42:02;;;;;;;4.15;0.77;;;15.50;94.60;;;;;;4991011;28;20038;-58
2022/08/05 05:44:28;;;;;;;3.17;0.75;;;15.50;94.30;;;;;;4989509;28;20054;-58
2022/08/05 05:46:53;;;;;;;1.23;0.52;;;15.60;94.10;;;;;;4991175;28;20054;-58
2022/08/05 05:49:19;;;;;;;6.28;0.80;;;15.60;93.50;;;;;;4994380;28;20030;-58
2022/08/05 05:51:45;;;;;;;3.75;0.82;;;15.50;93.50;;;;;;4988992;28;20030;-58
2022/08/05 05:54:10;;;;;;;1.50;0.60;;;15.50;93.40;;;;;;4987495;28;20029;-58
2022/08/05 05:56:36;;;;;;;2.90;0.40;;;15.60;93.00;;;;;;4990743;28;20038;-58
2022/08/05 05:59:04;;;;;;;2.70;0.60;;;15.60;92.50;;;;;;4987062;28;20022;-58
2022/08/05 06:01:31;;;;;;;4.57;0.60;;;15.70;92.60;;;;;;4984586;28;20035;-58
2022/08/05 06:03:56;;;;;;;5.03;1.08;;;15.60;92.20;;;;;;4991094;28;20042;-58
2022/08/05 06:06:22;;;;;;;3.35;0.85;;;15.70;92.50;;;;;;4993820;28;20034;-57
2022/08/05 06:08:48;;;;;;;1.88;0.40;;;15.80;92.10;;;;;;4995775;28;20335;-57
2022/08/05 06:11:13;;;;;;;5.75;1.30;;;15.80;92.10;;;;;;4989979;28;20100;-58
2022/08/05 06:13:39;;;;;;;3.22;0.45;;;15.70;92.30;;;;;;4987836;28;20072;-57
2022/08/05 06:16:05;;;;;;;3.42;0.80;;;15.70;92.50;;;;;;5000144;28;20482;-59
2022/08/05 06:18:31;;;;;;;2.58;0.63;;;15.70;92.60;;;;;;4994691;28;20478;-56
2022/08/05 06:20:56;;;;;;;4.30;1.20;;;15.70;92.40;;;;;;4989904;28;20077;-57
2022/08/05 06:23:22;;;;;;;2.17;0.57;;;15.80;92.70;;;;;;4993537;28;20054;-57
2022/08/05 06:25:49;;;;;;;5.60;0.77;;;15.70;91.70;;;;;;4992269;28;20038;-58
2022/08/05 06:28:15;;;;;;;7.03;0.50;;;15.60;91.70;;;;;;4985032;28;20035;-58
2022/08/05 06:30:41;;;;;;;3.28;0.40;;;15.50;92.30;;;;;;4988776;28;20533;-58
2022/08/05 06:33:07;;;;;;;4.13;0.88;;;15.50;92.00;;;;;;4993985;28;20036;-57
2022/08/05 06:35:33;;;;;;;2.97;0.75;;;15.40;92.40;;;;;;4988952;28;20050;-58
2022/08/05 06:37:58;;;;;;;5.55;0.82;;;15.50;92.40;;;;;;4988796;28;20390;-58
2022/08/05 06:40:24;;;;;;;3.47;0.90;;;15.60;92.40;;;;;;4986745;28;20042;-58
2022/08/05 06:42:50;;;;;;;3.15;0.55;;;15.60;91.70;;;;;;4999191;28;20415;-59
2022/08/05 06:45:16;;;;;;;1.52;0.50;;;15.60;92.00;;;;;;4996328;28;20499;-58
2022/08/05 06:47:41;;;;;;;2.53;0.50;;;15.50;91.40;;;;;;4988194;28;20033;-58
2022/08/05 06:50:07;;;;;;;2.72;0.60;;;15.50;91.50;;;;;;4990192;28;20574;-59
2022/08/05 06:52:33;;;;;;;4.22;1.00;;;15.50;90.90;;;;;;4996733;28;20030;-58
2022/08/05 06:54:59;;;;;;;2.10;0.43;;;15.60;90.90;;;;;;4992925;28;20049;-58
2022/08/05 06:57:24;;;;;;;5.05;0.70;;;15.60;90.70;;;;;;4985900;28;20034;-58
2022/08/05 06:59:50;;;;;;;2.15;0.65;;;15.60;90.80;;;;;;4992752;28;20052;-58
2022/08/05 07:02:16;;;;;;;4.40;0.50;;;15.60;91.20;;;;;;4999667;28;20026;-58
2022/08/05 07:04:41;;;;;;;4.05;0.60;;;15.70;90.20;;;;;;4993408;28;20490;-57
2022/08/05 07:07:07;;;;;;;4.43;0.60;;;15.70;90.20;;;;;;4997298;28;20041;-58
2022/08/05 07:09:33;;;;;;;5.32;0.70;;;15.80;90.10;;;;;;4994397;28;20038;-58
2022/08/05 07:11:58;;;;;;;4.78;0.50;;;15.80;88.90;;;;;;4991657;28;20033;-58
2022/08/05 07:17:08;;;;;;;1.45;0.40;;;15.80;87.30;;;;;;4996765;28;20037;-58
2022/08/05 07:19:34;;;;;;;1.95;0.93;;;15.90;87.50;;;;;;4991410;28;20038;-58
2022/08/05 07:22:00;;;;;;;2.83;0.70;;;15.90;86.00;;;;;;4992799;28;20037;-58
2022/08/05 07:24:25;;;;;;;1.90;0.30;;;16.00;87.40;;;;;;4993871;28;20089;-59
2022/08/05 07:26:51;;;;;;;1.48;0.70;;;16.10;86.30;;;;;;5000646;28;20423;-58
2022/08/05 07:29:17;;;;;;;3.45;0.60;;;16.10;85.50;;;;;;4990901;28;20053;-59
2022/08/05 07:31:43;;;;;;;3.40;0.60;;;16.20;85.90;;;;;;4995161;28;20030;-58
2022/08/05 07:34:08;;;;;;;2.40;0.30;;;16.30;85.30;;;;;;4991981;28;20806;-59
2022/08/05 07:36:34;;;;;;;1.90;0.43;;;16.40;84.20;;;;;;4989252;28;20034;-59
2022/08/05 07:39:01;;;;;;;2.63;0.50;;;16.30;84.10;;;;;;4992342;28;20034;-59
2022/08/05 07:41:27;;;;;;;3.40;0.70;;;16.40;84.20;;;;;;4990426;28;20042;-59
2022/08/05 07:43:54;;;;;;;2.33;0.40;;;16.40;84.30;;;;;;4990223;28;20043;-58
2022/08/05 07:46:20;;;;;;;1.92;0.35;;;16.40;83.90;;;;;;4996434;28;20092;-59
2022/08/05 07:48:45;;;;;;;2.45;0.35;;;16.50;82.60;;;;;;4994268;28;20125;-58
2022/08/05 07:51:14;;;;;;;2.50;0.47;;;16.50;81.60;;;;;;4992259;28;20114;-58
2022/08/05 07:53:41;;;;;;;5.20;0.60;;;16.50;81.50;;;;;;5004876;28;20030;-57
2022/08/05 07:56:06;;;;;;;3.22;0.60;;;16.50;81.90;;;;;;4989143;28;20081;-58
2022/08/05 07:58:32;;;;;;;2.90;0.40;;;16.60;82.20;;;;;;4996360;28;20490;-59
2022/08/05 08:00:58;;;;;;;8.85;1.38;;;16.70;81.00;;;;;;4993724;28;20376;-59
2022/08/05 08:03:24;;;;;;;3.25;0.50;;;16.70;81.80;;;;;;4996897;28;20490;-58
2022/08/05 08:05:52;;;;;;;3.10;0.55;;;16.80;81.20;;;;;;4996605;28;20031;-58
2022/08/05 08:08:18;;;;;;;2.20;0.52;;;16.90;80.60;;;;;;4997137;28;20072;-58
2022/08/05 08:10:44;;;;;;;1.95;0.68;;;17.00;79.10;;;;;;4990501;28;20065;-59
2022/08/05 08:13:10;;;;;;;3.85;0.60;;;17.10;78.60;;;;;;4999074;28;20084;-59
2022/08/05 08:15:36;;;;;;;1.20;0.35;;;17.10;78.50;;;;;;4994655;28;20034;-57
2022/08/05 08:18:02;;;;;;;1.60;0.40;;;17.20;78.00;;;;;;4991468;28;20123;-57
2022/08/05 08:20:27;;;;;;;3.75;0.47;;;17.20;78.90;;;;;;4993000;28;20038;-58
2022/08/05 08:22:55;;;;;;;3.35;0.65;;;17.30;75.60;;;;;;4993917;28;20037;-57
2022/08/05 08:25:21;;;;;;;2.78;0.40;;;17.40;75.00;;;;;;4996597;28;20074;-58
2022/08/05 08:27:46;;;;;;;5.95;1.23;;;17.50;73.30;;;;;;4989677;28;20490;-58
2022/08/05 08:30:13;;;;;;;1.67;0.73;;;17.50;73.10;;;;;;4993959;28;20313;-58
2022/08/05 08:32:39;;;;;;;3.55;0.52;;;17.60;72.00;;;;;;4991365;28;20126;-58
2022/08/05 08:35:06;;;;;;;1.90;0.40;;;17.60;71.90;;;;;;4991960;28;20193;-57
2022/08/05 08:37:32;;;;;;;3.15;0.45;;;17.70;72.80;;;;;;4994642;28;20030;-57
2022/08/05 08:39:57;;;;;;;1.85;0.35;;;17.80;72.10;;;;;;4989753;28;20038;-59
2022/08/05 08:42:24;;;;;;;2.30;0.63;;;17.90;70.90;;;;;;4992032;28;20034;-57
2022/08/05 08:44:53;;;;;;;1.20;0.60;;;18.00;69.70;;;;;;4992762;28;20088;-58
2022/08/05 08:47:26;;;;;;;2.35;0.77;;;18.10;70.00;;;;;;4991138;28;20022;-58
2022/08/05 08:49:53;;;;;;;5.93;0.90;;;18.10;69.80;;;;;;4988352;28;20083;-58
2022/08/05 08:52:23;;;;;;;6.10;0.70;;;18.30;69.10;;;;;;5001040;28;20022;-58
2022/08/05 08:54:52;;;;;;;3.45;0.80;;;18.30;68.90;;;;;;4993077;28;20042;-58
2022/08/05 08:57:18;;;;;;;4.78;0.40;;;18.30;69.70;;;;;;5003690;28;20068;-59
2022/08/05 08:59:44;;;;;;;4.15;0.95;;;18.40;68.60;;;;;;4989208;28;20038;-58
2022/08/05 09:02:11;;;;;;;2.70;0.60;;;18.40;68.00;;;;;;4993051;28;20053;-57
2022/08/05 09:04:37;;;;;;;4.25;0.90;;;18.50;68.20;;;;;;4992460;28;20034;-58
2022/08/05 09:07:07;;;;;;;2.25;0.30;;;18.50;67.20;;;;;;4995829;28;20030;-57
2022/08/05 09:09:34;;;;;;;4.15;0.60;;;18.60;68.30;;;;;;4995146;28;20113;-58
2022/08/05 09:12:04;;;;;;;2.15;0.82;;;18.70;67.70;;;;;;5029325;22;20092;-56
2022/08/05 09:14:34;;;;;;;2.17;0.73;;;18.80;68.00;;;;;;5017667;28;20402;-57
2022/08/05 09:17:00;;;;;;;3.92;1.35;;;18.80;67.10;;;;;;5007013;28;20029;-57
2022/08/05 09:19:26;;;;;;;4.80;0.50;;;18.80;65.50;;;;;;5006236;28;20037;-57
2022/08/05 09:21:53;;;;;;;2.78;0.30;;;18.90;65.70;;;;;;5016341;28;20386;-57
2022/08/05 09:24:18;;;;;;;2.67;0.50;;;19.10;64.80;;;;;;5010013;28;20176;-57
2022/08/05 09:26:51;;;;;;;4.18;0.50;;;19.10;63.00;;;;;;5007536;28;20105;-57
2022/08/05 09:29:16;;;;;;;4.38;0.50;;;19.00;63.20;;;;;;5009413;28;20030;-57
2022/08/05 09:31:45;;;;;;;6.50;0.40;;;19.10;63.10;;;;;;5009421;28;20106;-58
2022/08/05 09:34:12;;;;;;;2.10;0.40;;;19.10;62.50;;;;;;5008721;28;20533;-57
2022/08/05 09:36:48;;;;;;;2.35;0.47;;;19.10;61.90;;;;;;5013511;28;20022;-58
2022/08/05 09:39:18;;;;;;;5.40;0.43;;;19.10;60.50;;;;;;5012271;28;20018;-58
2022/08/05 09:42:02;;;;;;;5.75;0.43;;;19.20;60.80;;;;;;5008104;28;20549;-58
2022/08/05 09:44:48;;;;;;;2.65;0.75;;;19.30;60.30;;;;;;5010227;28;20113;-57
2022/08/05 09:47:26;;;;;;;5.97;0.52;;;19.40;60.10;;;;;;5003526;28;20485;-57
2022/08/05 09:49:56;;;;;;;7.47;0.57;;;19.50;59.60;;;;;;5005741;28;20069;-57
2022/08/05 09:52:26;;;;;;;5.18;0.80;;;19.40;60.80;;;;;;5015413;28;20427;-57
2022/08/05 09:55:09;;;;;;;3.55;0.85;;;19.60;60.20;;;;;;5012518;28;20044;-58
2022/08/05 09:57:37;;;;;;;3.67;0.40;;;19.80;59.50;;;;;;5004791;28;20060;-57
2022/08/05 10:00:12;;;;;;;5.18;0.50;;;19.80;58.70;;;;;;5016533;28;20052;-57
2022/08/05 10:02:49;;;;;;;3.33;0.65;;;19.90;59.10;;;;;;5008626;28;20121;-58
2022/08/05 10:05:20;;;;;;;2.08;0.40;;;19.90;57.70;;;;;;5005951;28;20037;-58
2022/08/05 10:07:57;;;;;;;3.03;0.60;;;19.90;57.50;;;;;;5014100;28;20501;-59
2022/08/05 10:10:42;;;;;;;1.75;0.40;;;20.00;57.20;;;;;;5009994;28;20069;-57
2022/08/05 10:13:08;;;;;;;3.35;0.40;;;20.10;57.20;;;;;;5012521;28;20060;-57
2022/08/05 10:15:38;;;;;;;2.28;0.65;;;20.10;57.50;;;;;;5008565;28;20464;-57
2022/08/05 10:18:14;;;;;;;1.38;0.50;;;20.20;57.00;;;;;;5010301;28;20133;-57
2022/08/05 10:20:53;;;;;;;2.05;0.40;;;20.10;57.60;;;;;;5012446;28;20041;-59
2022/08/05 10:23:26;;;;;;;4.85;1.25;;;20.10;58.40;;;;;;5002521;28;20053;-58
2022/08/05 10:25:54;;;;;;;4.13;0.57;;;20.20;57.50;;;;;;5003547;28;20114;-56
2022/08/05 10:28:21;;;;;;;2.85;0.70;;;20.30;57.40;;;;;;5022615;28;20446;-58
2022/08/05 10:30:47;;;;;;;2.85;0.30;;;20.60;57.50;;;;;;5005452;28;20021;-57
2022/08/05 10:33:13;;;;;;;1.90;0.30;;;20.60;57.60;;;;;;5014889;28;20496;-57
2022/08/05 10:35:39;;;;;;;4.13;0.60;;;20.60;57.10;;;;;;5014471;28;20026;-58
2022/08/05 10:38:06;;;;;;;3.22;0.40;;;20.80;55.70;;;;;;5005903;28;20030;-58
2022/08/05 10:40:42;;;;;;;2.97;0.40;;;20.70;56.60;;;;;;5014314;28;20462;-57
2022/08/05 10:43:42;;;;;;;2.58;0.45;;;20.70;54.10;;;;;;5009108;28;20022;-58
2022/08/05 10:46:10;;;;;;;2.10;0.30;;;20.60;55.00;;;;;;5008293;28;20357;-57
2022/08/05 10:48:42;;;;;;;2.70;0.50;;;20.60;55.00;;;;;;5007421;28;20128;-57
2022/08/05 10:51:10;;;;;;;1.42;0.47;;;20.80;55.00;;;;;;5015651;28;20033;-57
2022/08/05 10:53:40;;;;;;;3.13;0.63;;;20.80;54.70;;;;;;5013844;28;20025;-58
2022/08/05 10:56:11;;;;;;;3.42;0.50;;;21.00;53.70;;;;;;5012451;28;20072;-57
2022/08/05 10:58:53;;;;;;;1.65;0.50;;;20.90;52.90;;;;;;5000650;28;20113;-58
2022/08/05 11:01:35;;;;;;;4.22;0.88;;;21.00;52.30;;;;;;5007320;28;20117;-58
2022/08/05 11:04:09;;;;;;;2.63;0.50;;;21.00;53.00;;;;;;5008799;28;20538;-58
2022/08/05 11:07:00;;;;;;;40.20;34.05;;;21.20;51.90;;;;;;5008473;28;20038;-59
2022/08/05 11:09:42;;;;;;;3.37;0.53;;;21.40;51.10;;;;;;5018034;28;20083;-59
2022/08/05 11:12:23;;;;;;;1.70;0.60;;;21.90;51.70;;;;;;5013098;28;20356;-59
2022/08/05 11:15:05;;;;;;;1.70;0.40;;;22.40;50.50;;;;;;5002687;28;20477;-59
2022/08/05 11:17:34;;;;;;;4.18;0.60;;;22.80;50.40;;;;;;5000120;28;20034;-59
2022/08/05 11:20:00;;;;;;;2.85;0.50;;;23.20;50.20;;;;;;5005927;28;20034;-59
2022/08/05 11:22:40;;;;;;;0.77;0.38;;;23.40;47.60;;;;;;5016036;28;20505;-59
2022/08/05 11:25:36;;;;;;;1.20;0.20;;;23.30;47.60;;;;;;5013829;28;20572;-59
2022/08/05 11:28:10;;;;;;;3.10;0.70;;;23.50;47.40;;;;;;5010347;28;20125;-59
2022/08/05 11:30:55;;;;;;;1.92;0.50;;;23.50;46.00;;;;;;5012871;28;20485;-59
2022/08/05 11:33:25;;;;;;;4.68;0.52;;;23.80;46.70;;;;;;5012588;28;20033;-59
2022/08/05 11:35:56;;;;;;;3.08;0.55;;;24.10;46.70;;;;;;5007085;28;20049;-59
2022/08/05 11:38:40;;;;;;;1.85;0.47;;;24.10;47.10;;;;;;5010687;28;20515;-59
2022/08/05 11:41:20;;;;;;;2.95;0.40;;;24.30;46.50;;;;;;5002120;28;20073;-59
2022/08/05 11:43:59;;;;;;;2.60;0.60;;;23.90;46.60;;;;;;5010649;28;20039;-59
2022/08/05 11:46:38;;;;;;;3.63;0.70;;;24.00;47.00;;;;;;5007384;28;20553;-59
2022/08/05 11:49:05;;;;;;;1.42;0.80;;;24.60;46.70;;;;;;5015587;28;20394;-59
2022/08/05 11:51:31;;;;;;;3.03;0.50;;;24.80;45.70;;;;;;5002574;28;20084;-59
2022/08/05 11:53:59;;;;;;;1.58;0.75;;;25.10;43.90;;;;;;5012551;28;20030;-59
2022/08/05 11:56:25;;;;;;;3.58;0.80;;;25.50;43.50;;;;;;5002557;28;20117;-59
2022/08/05 11:58:51;;;;;;;2.22;0.52;;;25.40;43.50;;;;;;5004771;28;20405;-58
2022/08/05 12:01:21;;;;;;;1.75;0.50;;;25.60;43.80;;;;;;5017615;28;20028;-58
2022/08/05 12:03:50;;;;;;;4.03;0.55;;;25.40;43.80;;;;;;5012529;28;20017;-58
2022/08/05 12:06:17;;;;;;;2.72;0.70;;;25.30;43.50;;;;;;5004904;28;20489;-58
2022/08/05 12:08:55;;;;;;;4.47;1.48;;;25.60;43.40;;;;;;5005441;28;20033;-59
2022/08/05 12:11:23;;;;;;;0.88;0.50;;;25.40;43.40;;;;;;5003803;28;20129;-58
2022/08/05 12:13:53;;;;;;;3.65;0.60;;;25.80;43.20;;;;;;5004360;28;20025;-59
2022/08/05 12:16:20;;;;;;;3.50;0.70;;;26.00;42.50;;;;;;5017296;28;20022;-59
2022/08/05 12:18:46;;;;;;;2.92;0.40;;;25.90;42.30;;;;;;5012370;28;20286;-59
2022/08/05 12:21:18;;;;;;;2.28;0.50;;;25.70;43.20;;;;;;5013489;28;20026;-58
2022/08/05 12:24:07;;;;;;;1.73;0.47;;;25.60;42.20;;;;;;5016512;28;20029;-58
2022/08/05 12:26:40;;;;;;;4.85;0.50;;;25.80;41.50;;;;;;5006315;28;20136;-58
2022/08/05 12:29:12;;;;;;;3.10;0.50;;;26.10;40.90;;;;;;5011062;28;20022;-57
2022/08/05 12:31:38;;;;;;;2.97;1.00;;;26.20;40.30;;;;;;5008300;28;20087;-58
2022/08/05 12:34:07;;;;;;;2.15;0.47;;;26.10;40.00;;;;;;5015023;28;20033;-59
2022/08/05 12:36:34;;;;;;;2.33;0.70;;;26.30;40.00;;;;;;5006077;28;20054;-58
2022/08/05 12:39:01;;;;;;;1.25;0.40;;;26.60;38.80;;;;;;5009319;28;20041;-58
2022/08/05 12:41:31;;;;;;;1.23;0.45;;;27.10;38.50;;;;;;5006456;28;20498;-58
2022/08/05 12:44:00;;;;;;;3.38;0.70;;;27.30;38.50;;;;;;5014044;28;20478;-59
2022/08/05 12:46:28;;;;;;;2.70;0.50;;;27.30;38.10;;;;;;5015228;28;20091;-58
2022/08/05 12:49:01;;;;;;;2.03;1.08;;;27.40;38.90;;;;;;5006718;28;20042;-58
2022/08/05 12:51:27;;;;;;;4.45;0.70;;;27.30;38.90;;;;;;5003730;28;20030;-58
2022/08/05 12:54:01;;;;;;;1.05;0.43;;;27.60;38.60;;;;;;5011698;28;20026;-58
2022/08/05 12:56:28;;;;;;;2.85;0.50;;;27.80;37.80;;;;;;5012077;28;20041;-58
2022/08/05 12:59:14;;;;;;;1.25;0.50;;;27.50;37.30;;;;;;5009896;28;20036;-59